createdAt,value
2019-02-19T00:01:41.195Z,15.33
2019-02-19T00:04:09.192Z,15.90
2019-02-19T00:06:37.306Z,15.23
2019-02-19T00:09:06.079Z,14.77
2019-02-19T00:11:34.054Z,14.77
2019-02-19T00:14:02.188Z,14.97
2019-02-19T00:16:30.383Z,15.43
2019-02-19T00:18:58.633Z,15.37
2019-02-19T00:21:26.677Z,15.27
2019-02-19T00:23:54.755Z,15.53
2019-02-19T00:26:22.707Z,15.67
2019-02-19T00:28:50.516Z,14.83
2019-02-19T00:31:18.516Z,15.63
2019-02-19T00:33:46.495Z,15.00
2019-02-19T00:36:14.421Z,15.10
2019-02-19T00:38:42.327Z,14.80
2019-02-19T00:41:10.458Z,15.50
2019-02-19T00:43:38.479Z,14.70
2019-02-19T00:46:06.480Z,14.80
2019-02-19T00:48:34.461Z,15.10
2019-02-19T00:51:02.596Z,15.27
2019-02-19T00:53:30.600Z,14.83
2019-02-19T00:55:59.631Z,15.07
2019-02-19T00:58:27.782Z,16.30
2019-02-19T01:00:56.013Z,15.77
2019-02-19T01:03:24.299Z,17.57
2019-02-19T01:05:52.536Z,16.03
2019-02-19T01:08:20.355Z,14.57
2019-02-19T01:10:48.542Z,16.13
2019-02-19T01:13:16.838Z,15.70
2019-02-19T01:15:44.771Z,15.53
2019-02-19T01:18:12.728Z,16.23
2019-02-19T01:20:40.702Z,16.17
2019-02-19T01:23:08.798Z,16.00
2019-02-19T01:25:36.630Z,15.73
2019-02-19T01:28:04.582Z,15.90
2019-02-19T01:30:32.765Z,16.87
2019-02-19T01:33:01.870Z,14.40
2019-02-19T01:35:29.731Z,15.77
2019-02-19T01:37:57.605Z,14.93
2019-02-19T01:40:25.681Z,16.27
2019-02-19T01:42:54.564Z,15.67
2019-02-19T01:45:22.652Z,15.33
2019-02-19T01:47:50.704Z,16.47
2019-02-19T01:50:20.015Z,16.83
2019-02-19T01:52:48.111Z,15.40
2019-02-19T01:55:16.119Z,15.50
2019-02-19T01:57:44.087Z,15.93
2019-02-19T02:00:12.113Z,14.70
2019-02-19T02:02:40.225Z,15.73
2019-02-19T02:05:11.138Z,16.40
2019-02-19T02:07:39.086Z,15.13
2019-02-19T02:10:07.245Z,15.60
2019-02-19T02:12:35.415Z,15.50
2019-02-19T02:15:03.378Z,15.50
2019-02-19T02:17:31.504Z,15.43
2019-02-19T02:19:59.600Z,14.37
2019-02-19T02:22:27.730Z,15.07
2019-02-19T02:24:55.799Z,15.73
2019-02-19T02:27:24.126Z,15.67
2019-02-19T02:29:52.469Z,16.07
2019-02-19T02:32:20.478Z,15.70
2019-02-19T02:34:48.386Z,15.93
2019-02-19T02:37:17.257Z,15.70
2019-02-19T02:39:45.148Z,15.10
2019-02-19T02:42:13.091Z,15.50
2019-02-19T02:44:42.037Z,15.20
2019-02-19T02:47:10.205Z,15.93
2019-02-19T02:49:38.845Z,14.07
2019-02-19T02:52:06.766Z,15.23
2019-02-19T02:54:34.733Z,14.80
2019-02-19T02:57:02.887Z,15.53
2019-02-19T02:59:31.049Z,15.37
2019-02-19T03:01:59.972Z,15.27
2019-02-19T03:04:28.041Z,15.33
2019-02-19T03:07:10.609Z,15.57
2019-02-19T03:09:38.805Z,14.57
2019-02-19T03:12:06.864Z,16.67
2019-02-19T03:14:34.795Z,15.43
2019-02-19T03:17:02.722Z,14.57
2019-02-19T03:19:30.776Z,15.17
2019-02-19T03:21:58.904Z,14.40
2019-02-19T03:24:26.986Z,15.33
2019-02-19T03:26:55.045Z,15.07
2019-02-19T03:29:22.969Z,14.53
2019-02-19T03:31:50.928Z,14.93
2019-02-19T03:34:19.905Z,14.10
2019-02-19T03:36:49.123Z,13.93
2019-02-19T03:39:16.963Z,14.47
2019-02-19T03:41:45.104Z,14.40
2019-02-19T03:44:12.998Z,13.93
2019-02-19T03:46:40.998Z,14.10
2019-02-19T03:49:08.874Z,15.00
2019-02-19T03:51:36.630Z,14.33
2019-02-19T03:54:04.632Z,13.83
2019-02-19T03:56:32.759Z,14.67
2019-02-19T03:59:00.705Z,14.60
2019-02-19T04:01:29.025Z,14.37
2019-02-19T04:03:57.154Z,14.47
2019-02-19T04:06:25.073Z,15.07
2019-02-19T04:08:53.054Z,15.10
2019-02-19T04:11:21.132Z,15.47
2019-02-19T04:13:49.205Z,14.30
2019-02-19T04:16:21.360Z,13.93
2019-02-19T04:18:46.980Z,14.73
2019-02-19T04:21:15.114Z,14.77
2019-02-19T04:23:42.961Z,13.97
2019-02-19T04:26:11.178Z,14.67
2019-02-19T04:28:39.115Z,13.53
2019-02-19T04:31:07.273Z,14.00
2019-02-19T04:33:35.980Z,14.43
2019-02-19T04:36:04.099Z,13.90
2019-02-19T04:38:32.076Z,14.00
2019-02-19T04:41:00.351Z,14.20
2019-02-19T04:43:28.307Z,15.03
2019-02-19T04:45:56.464Z,12.97
2019-02-19T04:48:24.859Z,14.53
2019-02-19T04:50:52.627Z,14.47
2019-02-19T04:53:20.599Z,14.97
2019-02-19T04:55:48.515Z,14.63
2019-02-19T04:58:16.499Z,15.53
2019-02-19T05:00:45.418Z,15.73
2019-02-19T05:03:13.945Z,14.83
2019-02-19T05:05:41.860Z,14.20
2019-02-19T05:08:09.730Z,14.93
2019-02-19T05:10:37.557Z,14.77
2019-02-19T05:13:05.570Z,13.97
2019-02-19T05:15:33.476Z,14.10
2019-02-19T05:18:01.395Z,15.13
2019-02-19T05:20:29.396Z,16.00
2019-02-19T05:22:57.375Z,17.03
2019-02-19T05:25:25.589Z,15.43
2019-02-19T05:27:53.512Z,17.30
2019-02-19T05:30:21.433Z,17.93
2019-02-19T05:32:49.316Z,17.13
2019-02-19T05:35:17.170Z,16.43
2019-02-19T05:37:44.943Z,16.00
2019-02-19T05:40:12.912Z,16.57
2019-02-19T05:42:40.798Z,15.27
2019-02-19T05:45:08.835Z,15.97
2019-02-19T05:47:36.737Z,16.47
2019-02-19T05:50:04.711Z,16.63
2019-02-19T05:52:32.833Z,16.43
2019-02-19T05:55:00.780Z,17.63
2019-02-19T05:57:28.843Z,17.07
2019-02-19T05:59:56.644Z,18.03
2019-02-19T06:02:24.645Z,18.77
2019-02-19T06:04:52.553Z,17.00
2019-02-19T06:07:20.563Z,17.30
2019-02-19T06:09:48.502Z,17.93
2019-02-19T06:12:16.459Z,16.63
2019-02-19T06:14:44.281Z,18.13
2019-02-19T06:17:12.178Z,16.87
2019-02-19T06:19:40.261Z,17.87
2019-02-19T06:22:08.197Z,17.73
2019-02-19T06:24:37.200Z,16.83
2019-02-19T06:27:05.207Z,17.40
2019-02-19T06:29:33.119Z,17.03
2019-02-19T06:32:00.825Z,17.10
2019-02-19T06:34:28.833Z,16.33
2019-02-19T06:36:56.651Z,17.53
2019-02-19T06:39:24.629Z,16.67
2019-02-19T06:41:52.510Z,17.03
2019-02-19T06:44:21.078Z,18.70
2019-02-19T06:46:49.874Z,18.03
2019-02-19T06:49:18.069Z,18.10
2019-02-19T06:51:46.138Z,18.63
2019-02-19T06:54:14.160Z,17.83
2019-02-19T06:56:42.052Z,18.37
2019-02-19T06:59:10.162Z,18.17
2019-02-19T07:01:57.021Z,19.07
2019-02-19T07:04:28.757Z,18.77
2019-02-19T07:06:56.774Z,18.03
2019-02-19T07:09:24.913Z,17.63
2019-02-19T07:11:52.910Z,18.40
2019-02-19T07:14:20.984Z,17.80
2019-02-19T07:16:48.819Z,18.60
2019-02-19T07:19:16.680Z,17.50
2019-02-19T07:21:44.863Z,15.57
2019-02-19T07:24:12.747Z,16.07
2019-02-19T07:26:40.727Z,16.13
2019-02-19T07:29:08.802Z,15.70
2019-02-19T07:31:36.569Z,16.13
2019-02-19T07:34:04.417Z,17.00
2019-02-19T07:36:32.446Z,15.53
2019-02-19T07:39:00.459Z,17.63
2019-02-19T07:41:28.342Z,18.00
2019-02-19T07:43:56.209Z,18.40
2019-02-19T07:46:24.072Z,19.73
2019-02-19T07:48:52.067Z,18.27
2019-02-19T07:51:20.182Z,19.40
2019-02-19T07:53:48.481Z,21.00
2019-02-19T07:56:16.401Z,21.57
2019-02-19T07:58:44.415Z,25.87
2019-02-19T08:01:12.188Z,22.73
2019-02-19T08:03:40.146Z,19.40
2019-02-19T08:06:08.062Z,18.00
2019-02-19T08:08:36.203Z,17.13
2019-02-19T08:11:04.309Z,17.30
2019-02-19T08:13:32.151Z,16.20
2019-02-19T08:16:01.114Z,15.90
2019-02-19T08:18:29.097Z,15.77
2019-02-19T08:20:57.025Z,14.77
2019-02-19T08:23:25.046Z,15.23
2019-02-19T08:25:53.031Z,15.20
2019-02-19T08:28:20.966Z,15.93
2019-02-19T08:30:49.154Z,15.20
2019-02-19T08:33:17.213Z,13.37
2019-02-19T08:35:45.085Z,13.37
2019-02-19T08:38:12.961Z,13.33
2019-02-19T08:40:40.913Z,13.77
2019-02-19T08:43:08.898Z,14.00
2019-02-19T08:45:36.825Z,14.60
2019-02-19T08:48:04.819Z,13.43
2019-02-19T08:50:32.737Z,12.97
2019-02-19T08:53:00.783Z,14.10
2019-02-19T08:55:28.637Z,12.43
2019-02-19T08:57:56.478Z,12.20
2019-02-19T09:00:24.573Z,12.30
2019-02-19T09:02:52.541Z,11.87
2019-02-19T09:05:20.521Z,11.83
2019-02-19T09:07:48.318Z,11.40
2019-02-19T09:10:16.257Z,11.50
2019-02-19T09:12:44.333Z,11.23
2019-02-19T09:15:12.401Z,11.17
2019-02-19T09:17:40.310Z,11.47
2019-02-19T09:20:08.440Z,12.27
2019-02-19T09:22:36.323Z,12.27
2019-02-19T09:25:04.690Z,11.77
2019-02-19T09:27:32.559Z,10.93
2019-02-19T09:30:00.511Z,11.33
2019-02-19T09:32:28.479Z,11.60
2019-02-19T09:34:56.354Z,11.27
2019-02-19T09:37:25.279Z,11.87
2019-02-19T09:39:54.764Z,11.77
2019-02-19T09:42:22.608Z,12.07
2019-02-19T09:44:50.580Z,11.53
2019-02-19T09:47:18.582Z,11.97
2019-02-19T09:49:46.358Z,11.67
2019-02-19T09:52:14.201Z,11.40
2019-02-19T09:54:42.364Z,11.60
2019-02-19T09:57:10.246Z,10.83
2019-02-19T09:59:38.292Z,11.60
2019-02-19T10:02:06.316Z,11.13
2019-02-19T10:04:34.364Z,12.00
2019-02-19T10:07:02.141Z,12.30
2019-02-19T10:09:30.595Z,12.13
2019-02-19T10:11:58.486Z,11.87
2019-02-19T10:14:26.533Z,11.60
2019-02-19T10:16:54.444Z,11.33
2019-02-19T10:19:22.592Z,10.90
2019-02-19T10:21:51.763Z,11.13
2019-02-19T10:24:19.787Z,11.03
2019-02-19T10:26:49.590Z,10.77
2019-02-19T10:29:17.669Z,11.00
2019-02-19T10:31:45.697Z,10.40
2019-02-19T10:34:13.815Z,11.40
2019-02-19T10:36:41.843Z,15.37
2019-02-19T10:39:11.359Z,11.33
2019-02-19T10:41:39.619Z,11.17
2019-02-19T10:44:07.488Z,11.90
2019-02-19T10:46:35.620Z,12.30
2019-02-19T10:49:03.572Z,12.27
2019-02-19T10:51:31.831Z,13.77
2019-02-19T10:54:00.091Z,13.60
2019-02-19T10:56:28.039Z,13.87
2019-02-19T10:58:55.995Z,14.53
2019-02-19T11:01:23.808Z,13.00
2019-02-19T11:03:51.847Z,13.37
2019-02-19T11:06:19.795Z,13.03
2019-02-19T11:08:47.767Z,12.63
2019-02-19T11:11:15.723Z,12.13
2019-02-19T11:13:43.891Z,12.77
2019-02-19T11:16:12.051Z,13.67
2019-02-19T11:18:40.334Z,14.67
2019-02-19T11:21:08.375Z,12.70
2019-02-19T11:23:36.192Z,13.03
2019-02-19T11:26:04.401Z,12.67
2019-02-19T11:28:32.563Z,12.87
2019-02-19T11:31:00.663Z,11.77
2019-02-19T11:33:28.857Z,11.63
2019-02-19T11:35:56.862Z,12.97
2019-02-19T11:38:24.942Z,12.47
2019-02-19T11:40:52.803Z,13.60
2019-02-19T11:43:20.849Z,13.57
2019-02-19T11:45:48.971Z,13.20
2019-02-19T11:48:16.991Z,12.37
2019-02-19T11:50:44.841Z,13.43
2019-02-19T11:53:12.728Z,12.50
2019-02-19T11:55:40.662Z,14.17
2019-02-19T11:58:08.546Z,14.27
2019-02-19T12:00:38.869Z,13.70
2019-02-19T12:03:06.770Z,13.30
2019-02-19T12:05:34.696Z,13.70
2019-02-19T12:08:02.803Z,13.37
2019-02-19T12:10:30.864Z,13.83
2019-02-19T12:12:58.880Z,12.53
2019-02-19T12:15:34.932Z,13.63
2019-02-19T12:17:56.723Z,14.30
2019-02-19T12:20:24.679Z,14.60
2019-02-19T12:22:52.883Z,13.00
2019-02-19T12:25:20.892Z,13.43
2019-02-19T12:27:48.808Z,13.87
2019-02-19T12:30:17.763Z,13.03
2019-02-19T12:32:45.562Z,12.80
2019-02-19T12:35:13.604Z,13.93
2019-02-19T12:37:41.541Z,16.87
2019-02-19T12:40:09.798Z,14.40
2019-02-19T12:42:38.118Z,11.27
2019-02-19T12:45:07.173Z,11.90
2019-02-19T12:47:35.437Z,11.50
2019-02-19T12:50:03.722Z,12.57
2019-02-19T12:52:31.700Z,16.63
2019-02-19T12:54:59.912Z,11.90
2019-02-19T12:57:27.908Z,11.57
2019-02-19T12:59:56.769Z,12.33
2019-02-19T13:02:24.825Z,12.60
2019-02-19T13:04:52.974Z,13.43
2019-02-19T13:07:20.763Z,12.20
2019-02-19T13:09:48.818Z,11.10
2019-02-19T13:12:16.906Z,11.97
2019-02-19T13:14:44.794Z,12.07
2019-02-19T13:17:15.776Z,12.90
2019-02-19T13:19:43.869Z,11.63
2019-02-19T13:22:11.849Z,11.70
2019-02-19T13:24:39.654Z,11.20
2019-02-19T13:27:07.590Z,11.10
2019-02-19T13:29:36.083Z,10.77
2019-02-19T13:32:04.206Z,10.87
2019-02-19T13:34:32.229Z,11.43
2019-02-19T13:37:00.192Z,11.00
2019-02-19T13:39:28.286Z,10.80
2019-02-19T13:41:56.079Z,10.57
2019-02-19T13:44:24.089Z,10.87
2019-02-19T13:46:52.070Z,11.00
2019-02-19T13:49:20.034Z,10.23
2019-02-19T13:51:47.904Z,10.93
2019-02-19T13:54:29.828Z,11.10
2019-02-19T13:56:57.880Z,9.90
2019-02-19T13:59:25.903Z,9.80
2019-02-19T14:01:53.839Z,10.53
2019-02-19T14:04:21.877Z,10.40
2019-02-19T14:06:49.888Z,10.57
2019-02-19T14:09:17.894Z,10.70
2019-02-19T14:11:45.951Z,10.20
2019-02-19T14:14:21.551Z,9.70
2019-02-19T14:16:55.866Z,9.40
2019-02-19T14:19:44.904Z,10.03
2019-02-19T14:22:31.039Z,9.63
2019-02-19T14:25:27.530Z,9.80
2019-02-19T14:28:16.031Z,8.60
2019-02-19T14:31:18.811Z,9.27
2019-02-19T14:34:05.681Z,10.27
2019-02-19T14:36:55.538Z,11.00
2019-02-19T14:39:46.006Z,10.40
2019-02-19T14:42:36.203Z,9.90
2019-02-19T14:45:22.551Z,9.97
2019-02-19T14:48:06.558Z,9.77
2019-02-19T14:50:54.199Z,9.80
2019-02-19T14:53:57.251Z,9.57
2019-02-19T14:56:42.292Z,9.20
2019-02-19T14:59:27.448Z,8.10
2019-02-19T15:02:14.992Z,8.63
2019-02-19T15:04:59.899Z,8.30
2019-02-19T15:07:56.369Z,9.00
2019-02-19T15:10:49.740Z,8.60
2019-02-19T15:13:37.222Z,8.10
2019-02-19T15:16:12.698Z,8.60
2019-02-19T15:19:06.131Z,8.57
2019-02-19T15:22:09.192Z,7.77
2019-02-19T15:24:56.539Z,7.77
2019-02-19T15:27:42.776Z,7.77
2019-02-19T15:30:30.152Z,7.87
2019-02-19T15:33:04.843Z,8.30
2019-02-19T15:36:02.098Z,8.53
2019-02-19T15:38:52.270Z,8.60
2019-02-19T15:41:32.740Z,8.87
2019-02-19T15:44:26.800Z,8.37
2019-02-19T15:47:16.337Z,8.43
2019-02-19T15:50:03.795Z,8.83
2019-02-19T15:52:54.328Z,7.67
2019-02-19T15:55:40.590Z,8.30
2019-02-19T15:58:27.122Z,8.30
2019-02-19T16:01:13.221Z,8.23
2019-02-19T16:03:59.157Z,7.43
2019-02-19T16:06:53.700Z,7.30
2019-02-19T16:09:44.064Z,7.97
2019-02-19T16:12:43.536Z,7.17
2019-02-19T16:15:42.936Z,8.50
2019-02-19T16:18:33.819Z,7.70
2019-02-19T16:21:21.634Z,8.13
2019-02-19T16:24:07.778Z,8.23
2019-02-19T16:27:03.888Z,9.23
2019-02-19T16:30:00.394Z,9.00
2019-02-19T16:32:50.543Z,8.83
2019-02-19T16:35:47.033Z,8.77
2019-02-19T16:38:40.570Z,8.67
2019-02-19T16:41:40.117Z,8.73
2019-02-19T16:44:39.462Z,11.33
2019-02-19T16:47:25.392Z,11.67
2019-02-19T16:50:12.825Z,10.20
2019-02-19T16:52:51.026Z,11.47
2019-02-19T16:55:33.380Z,10.50
2019-02-19T16:58:14.989Z,12.20
2019-02-19T17:01:02.370Z,13.37
2019-02-19T17:03:52.919Z,12.07
2019-02-19T17:06:28.736Z,12.27
2019-02-19T17:09:19.117Z,13.80
2019-02-19T17:12:16.921Z,12.43
2019-02-19T17:14:52.136Z,13.43
2019-02-19T17:17:48.850Z,12.90
2019-02-19T17:20:29.170Z,14.40
2019-02-19T17:23:16.844Z,16.50
2019-02-19T17:26:01.227Z,13.53
2019-02-19T17:28:34.690Z,14.57
2019-02-19T17:31:18.755Z,13.23
2019-02-19T17:34:06.711Z,14.33
2019-02-19T17:36:54.236Z,14.47
2019-02-19T17:39:46.597Z,13.37
2019-02-19T17:42:26.528Z,14.43
2019-02-19T17:45:22.988Z,13.87
2019-02-19T17:48:13.651Z,13.87
2019-02-19T17:51:10.122Z,14.33
2019-02-19T17:54:06.551Z,14.90
2019-02-19T17:57:06.192Z,14.83
2019-02-19T18:00:02.771Z,15.07
2019-02-19T18:02:42.065Z,15.40
2019-02-19T18:05:27.789Z,15.30
2019-02-19T18:08:23.788Z,15.40
2019-02-19T18:11:14.105Z,17.33
2019-02-19T18:14:00.346Z,19.30
2019-02-19T18:16:46.642Z,18.43
2019-02-19T18:19:14.881Z,18.50
2019-02-19T18:21:42.906Z,18.40
2019-02-19T18:24:10.958Z,17.33
2019-02-19T18:26:38.884Z,16.83
2019-02-19T18:29:06.831Z,17.57
2019-02-19T18:31:34.794Z,17.60
2019-02-19T18:34:02.849Z,18.40
2019-02-19T18:36:30.651Z,17.50
2019-02-19T18:38:58.599Z,17.93
2019-02-19T18:41:26.607Z,17.53
2019-02-19T18:43:54.722Z,17.13
2019-02-19T18:46:22.643Z,17.10
2019-02-19T18:48:50.704Z,16.90
2019-02-19T18:51:19.773Z,16.97
2019-02-19T18:53:47.830Z,17.80
2019-02-19T18:56:15.613Z,18.07
2019-02-19T18:58:43.747Z,18.73
2019-02-19T19:01:11.822Z,17.90
2019-02-19T19:03:39.615Z,20.23
2019-02-19T19:06:09.219Z,20.93
2019-02-19T19:08:37.002Z,20.80
2019-02-19T19:11:04.857Z,21.10
2019-02-19T19:13:33.104Z,20.83
2019-02-19T19:16:01.077Z,22.70
2019-02-19T19:18:29.179Z,21.83
2019-02-19T19:20:57.022Z,25.90
2019-02-19T19:23:24.981Z,27.93
2019-02-19T19:25:52.908Z,24.90
2019-02-19T19:28:22.760Z,28.00
2019-02-19T19:30:50.924Z,25.77
2019-02-19T19:33:18.940Z,26.27
2019-02-19T19:35:46.788Z,24.70
2019-02-19T19:38:14.878Z,27.07
2019-02-19T19:40:42.767Z,25.80
2019-02-19T19:43:10.789Z,26.90
2019-02-19T19:45:38.592Z,25.77
2019-02-19T19:48:06.654Z,24.80
2019-02-19T19:50:34.673Z,23.30
2019-02-19T19:53:02.691Z,23.83
2019-02-19T19:55:30.681Z,24.13
2019-02-19T19:57:59.030Z,24.40
2019-02-19T20:00:26.821Z,23.93
2019-02-19T20:02:55.128Z,23.53
2019-02-19T20:05:23.283Z,22.83
2019-02-19T20:07:51.904Z,23.27
2019-02-19T20:10:19.862Z,27.33
2019-02-19T20:12:47.813Z,27.90
2019-02-19T20:15:15.725Z,27.70
2019-02-19T20:17:44.563Z,26.27
2019-02-19T20:20:12.484Z,25.27
2019-02-19T20:22:40.408Z,24.67
2019-02-19T20:25:08.843Z,25.50
2019-02-19T20:27:38.354Z,26.40
2019-02-19T20:30:07.391Z,25.37
2019-02-19T20:32:37.088Z,24.83
2019-02-19T20:35:05.479Z,25.23
2019-02-19T20:37:33.492Z,25.20
2019-02-19T20:40:01.733Z,25.73
2019-02-19T20:42:29.885Z,24.30
2019-02-19T20:44:57.946Z,25.90
2019-02-19T20:47:26.022Z,25.73
2019-02-19T20:49:54.085Z,25.53
2019-02-19T20:52:22.159Z,27.17
2019-02-19T20:54:50.113Z,28.00
2019-02-19T20:57:18.213Z,27.17
2019-02-19T20:59:46.250Z,27.03
2019-02-19T21:02:14.235Z,26.90
2019-02-19T21:04:42.271Z,25.97
2019-02-19T21:07:10.388Z,26.33
2019-02-19T21:09:43.972Z,26.17
2019-02-19T21:12:08.086Z,26.10
2019-02-19T21:14:35.937Z,27.57
2019-02-19T21:17:04.086Z,28.50
2019-02-19T21:19:32.056Z,26.17
2019-02-19T21:22:00.014Z,25.73
2019-02-19T21:24:28.310Z,24.80
2019-02-19T21:26:56.375Z,27.53
2019-02-19T21:29:24.290Z,25.37
2019-02-19T21:31:52.291Z,25.03
2019-02-19T21:34:20.107Z,29.17
2019-02-19T21:36:48.194Z,26.83
2019-02-19T21:39:16.241Z,25.73
2019-02-19T21:41:44.421Z,26.20
2019-02-19T21:44:12.655Z,27.10
2019-02-19T21:46:41.316Z,26.67
2019-02-19T21:49:09.377Z,25.70
2019-02-19T21:51:37.482Z,25.00
2019-02-19T21:54:05.501Z,24.40
2019-02-19T21:56:33.822Z,24.97
2019-02-19T21:59:01.855Z,25.57
2019-02-19T22:01:30.021Z,24.37
2019-02-19T22:03:58.032Z,24.20
2019-02-19T22:06:27.335Z,25.00
2019-02-19T22:08:55.305Z,25.67
2019-02-19T22:11:23.329Z,23.70
2019-02-19T22:13:51.527Z,24.77
2019-02-19T22:16:19.571Z,24.27
2019-02-19T22:18:47.462Z,25.67
2019-02-19T22:21:50.036Z,24.27
2019-02-19T22:24:34.070Z,24.13
2019-02-19T22:27:04.890Z,24.70
2019-02-19T22:29:32.866Z,23.97
2019-02-19T22:32:01.014Z,24.53
2019-02-19T22:34:28.914Z,25.00
2019-02-19T22:36:56.964Z,26.57
2019-02-19T22:39:24.859Z,25.47
2019-02-19T22:41:52.936Z,25.00
2019-02-19T22:44:20.759Z,24.27
2019-02-19T22:46:48.864Z,24.43
2019-02-19T22:49:16.725Z,22.90
2019-02-19T22:51:44.721Z,23.30
2019-02-19T22:54:35.954Z,24.00
2019-02-19T22:57:04.089Z,24.10
2019-02-19T22:59:31.827Z,22.43
2019-02-19T23:02:05.830Z,22.87
2019-02-19T23:04:33.712Z,23.77
2019-02-19T23:07:01.694Z,23.20
2019-02-19T23:09:29.458Z,24.63
2019-02-19T23:11:57.551Z,22.77
2019-02-19T23:14:25.686Z,22.57
2019-02-19T23:16:53.694Z,22.93
2019-02-19T23:19:21.755Z,21.63
2019-02-19T23:21:49.775Z,23.60
2019-02-19T23:24:17.684Z,24.13
2019-02-19T23:26:45.587Z,23.73
2019-02-19T23:29:13.748Z,24.17
2019-02-19T23:31:41.590Z,24.27
2019-02-19T23:34:09.866Z,22.33
2019-02-19T23:36:49.889Z,23.17
2019-02-19T23:39:17.802Z,23.47
2019-02-19T23:41:45.768Z,24.40
2019-02-19T23:44:13.622Z,24.30
2019-02-19T23:46:41.641Z,22.87
2019-02-19T23:49:09.545Z,22.33
2019-02-19T23:51:37.635Z,23.40
2019-02-19T23:54:05.899Z,24.47
2019-02-19T23:56:33.868Z,22.90
2019-02-19T23:59:01.745Z,22.70
